Time;durP1;ratioP1;P1;durP2;ratioP2;P2;SDS_P1;SDS_P2;PMS_P1;PMS_P2;Temp;Humidity;BMP_temperature;BMP_pressure;BME280_temperature;BME280_humidity;BME280_pressure;Samples;Min_cycle;Max_cycle;Signal;HPM_P1;HPM_P2
2022/09/28 00:00:03;;;;;;;15.70;13.60;;;;;;;12.56;85.81;98634.89;86069;1283;81314;-61
2022/09/28 00:02:35;;;;;;;21.40;14.80;;;;;;;12.59;85.75;98630.83;86029;1297;81797;-66
2022/09/28 00:04:44;;;;;;;16.10;14.40;;;;;;;12.57;85.87;98635.14;86060;1295;98041;-66
2022/09/28 00:06:53;;;;;;;18.10;16.30;;;;;;;12.57;85.98;98632.39;86053;1297;89435;-67
2022/09/28 00:09:02;;;;;;;16.80;14.90;;;;;;;12.57;85.97;98628.95;85999;1283;95296;-66
2022/09/28 00:11:16;;;;;;;17.20;14.80;;;;;;;12.61;85.93;98630.27;86092;1291;82190;-62
2022/09/28 00:13:27;;;;;;;17.90;16.00;;;;;;;12.62;86.02;98633.11;85955;1297;80818;-62
2022/09/28 00:15:35;;;;;;;16.90;15.10;;;;;;;12.64;86.13;98635.52;86099;1297;97700;-65
2022/09/28 00:17:45;;;;;;;15.00;13.50;;;;;;;12.66;85.98;98641.24;86066;1283;88178;-65
2022/09/28 00:19:57;;;;;;;14.80;13.30;;;;;;;12.64;86.18;98640.23;86074;1295;95562;-65
2022/09/28 00:22:06;;;;;;;15.70;14.20;;;;;;;12.63;86.13;98638.33;86046;1297;81396;-67
2022/09/28 00:24:18;;;;;;;14.70;13.20;;;;;;;12.60;86.30;98637.14;86039;1291;82964;-66
2022/09/28 00:26:28;;;;;;;13.90;12.20;;;;;;;12.60;86.33;98633.19;86110;1296;98472;-63
2022/09/28 00:28:37;;;;;;;13.50;11.90;;;;;;;12.52;86.45;98631.08;86012;1283;90454;-63
2022/09/28 00:30:45;;;;;;;12.20;11.00;;;;;;;12.50;86.58;98628.30;86071;1291;94526;-63
2022/09/28 00:32:54;;;;;;;11.90;10.30;;;;;;;12.51;86.56;98627.61;86025;1289;81707;-62
2022/09/28 00:35:03;;;;;;;10.70;9.30;;;;;;;12.51;86.51;98633.30;86091;1297;81172;-65
2022/09/28 00:37:14;;;;;;;10.10;9.00;;;;;;;12.48;86.47;98632.21;86046;1291;98803;-62
2022/09/28 00:39:23;;;;;;;7.70;6.20;;;;;;;12.43;86.47;98634.03;86044;1290;88665;-63
2022/09/28 00:41:33;;;;;;;5.50;4.90;;;;;;;12.37;86.40;98633.33;86047;1288;96462;-67
2022/09/28 00:43:43;;;;;;;7.30;4.60;;;;;;;12.33;86.31;98638.14;85991;1292;81487;-66
2022/09/28 00:45:59;;;;;;;4.80;4.10;;;;;;;12.28;86.12;98643.29;86096;1297;83396;-62
2022/09/28 00:48:11;;;;;;;5.10;4.10;;;;;;;12.22;86.15;98642.37;86024;1283;98546;-62
2022/09/28 00:50:30;;;;;;;4.60;4.10;;;;;;;12.20;86.20;98643.48;86101;1289;88197;-64
2022/09/28 00:52:46;;;;;;;4.70;4.00;;;;;;;12.21;86.05;98647.81;86078;1295;95349;-64
2022/09/28 00:54:59;;;;;;;5.00;3.30;;;;;;;12.15;86.18;98650.63;86077;1297;80426;-65
2022/09/28 00:57:07;;;;;;;4.70;3.40;;;;;;;12.13;86.01;98651.78;86091;1297;82367;-64
2022/09/28 00:59:16;;;;;;;4.50;3.30;;;;;;;12.04;86.18;98649.83;86073;1291;97613;-64
2022/09/28 01:01:25;;;;;;;3.90;2.90;;;;;;;12.01;86.07;98648.94;86054;1298;89172;-66
2022/09/28 01:03:34;;;;;;;4.10;3.40;;;;;;;11.97;86.13;98651.19;86071;1284;95451;-65
2022/09/28 01:05:44;;;;;;;4.80;3.50;;;;;;;11.97;86.13;98653.64;86030;1298;82379;-65
2022/09/28 01:07:55;;;;;;;4.60;3.60;;;;;;;11.97;86.06;98648.81;85763;1292;379819;-62
2022/09/28 01:10:07;;;;;;;3.80;3.30;;;;;;;11.94;86.12;98654.27;86072;1291;99568;-62
2022/09/28 01:12:16;;;;;;;4.10;3.10;;;;;;;11.89;86.20;98651.79;86079;1283;88788;-62
2022/09/28 01:14:25;;;;;;;4.40;3.60;;;;;;;11.88;86.21;98649.98;86043;1292;93213;-62
2022/09/28 01:16:42;;;;;;;3.80;3.20;;;;;;;11.85;86.27;98650.69;86037;1299;80716;-61
2022/09/28 01:19:06;;;;;;;3.20;2.80;;;;;;;11.82;86.32;98650.30;86049;1282;79449;-60
2022/09/28 01:21:19;;;;;;;3.80;3.00;;;;;;;11.82;86.38;98644.25;86037;1292;97683;-62
2022/09/28 01:24:09;;;;;;;4.10;2.90;;;;;;;11.83;86.45;98644.10;86055;1297;88493;-62
2022/09/28 01:26:55;;;;;;;4.40;3.10;;;;;;;11.82;86.48;98637.70;86084;1292;94837;-63
2022/09/28 01:29:11;;;;;;;5.10;3.00;;;;;;;11.81;86.52;98640.70;86042;1278;82527;-64
2022/09/28 01:31:26;;;;;;;4.00;2.90;;;;;;;11.80;86.62;98638.36;86082;1292;80507;-61
2022/09/28 01:33:40;;;;;;;3.70;2.90;;;;;;;11.79;86.51;98632.50;86049;1283;96379;-62
2022/09/28 01:35:57;;;;;;;6.20;2.90;;;;;;;11.78;86.49;98629.77;86057;1297;87789;-63
2022/09/28 01:38:11;;;;;;;5.00;3.10;;;;;;;11.78;86.52;98626.36;86015;1283;93681;-63
2022/09/28 01:40:26;;;;;;;4.60;3.40;;;;;;;11.77;86.62;98625.48;86060;1297;81981;-64
2022/09/28 01:42:38;;;;;;;3.50;2.70;;;;;;;11.75;86.52;98624.67;86081;1298;81643;-63
2022/09/28 01:44:51;;;;;;;3.70;2.20;;;;;;;11.75;86.59;98628.25;86081;1292;97916;-66
2022/09/28 01:47:03;;;;;;;3.70;2.50;;;;;;;11.76;86.55;98625.06;86066;1282;86099;-65
2022/09/28 01:49:18;;;;;;;3.50;2.30;;;;;;;11.72;86.67;98622.94;86048;1283;95585;-65
2022/09/28 01:51:35;;;;;;;3.60;2.50;;;;;;;11.69;86.70;98617.89;86049;1299;81828;-65
2022/09/28 01:53:49;;;;;;;2.90;1.90;;;;;;;11.69;86.65;98619.77;86081;1275;82389;-65
2022/09/28 01:56:03;;;;;;;2.60;1.70;;;;;;;11.67;86.66;98613.55;86061;1298;97179;-65
2022/09/28 01:58:19;;;;;;;2.50;1.80;;;;;;;11.65;86.58;98611.98;86029;1283;87967;-65
2022/09/28 02:00:28;;;;;;;2.30;1.70;;;;;;;11.63;86.33;98608.34;86000;1282;92651;-65
2022/09/28 02:02:43;;;;;;;3.90;2.30;;;;;;;11.55;86.59;98611.84;86052;1297;80213;-65
2022/09/28 02:04:58;;;;;;;3.70;1.90;;;;;;;11.55;86.63;98615.05;86090;1283;82734;-64
2022/09/28 02:07:12;;;;;;;3.10;1.80;;;;;;;11.56;86.48;98614.48;86076;1282;97259;-59
2022/09/28 02:09:26;;;;;;;4.10;2.00;;;;;;;11.56;86.58;98614.48;86088;1282;87957;-64
2022/09/28 02:11:36;;;;;;;3.40;1.90;;;;;;;11.58;86.48;98618.02;86025;1297;92860;-65
2022/09/28 02:13:50;;;;;;;4.30;2.10;;;;;;;11.56;86.47;98621.60;86036;1297;82446;-65
2022/09/28 02:16:10;;;;;;;2.40;2.10;;;;;;;11.53;86.54;98627.60;86075;1297;81789;-62
2022/09/28 02:18:19;;;;;;;3.70;2.20;;;;;;;11.49;86.58;98626.65;86102;1291;99119;-62
2022/09/28 02:20:29;;;;;;;3.70;2.20;;;;;;;11.49;86.57;98628.37;86048;1297;89161;-63
2022/09/28 02:22:43;;;;;;;4.30;2.30;;;;;;;11.46;86.72;98634.52;86051;1291;95293;-63
2022/09/28 02:24:59;;;;;;;3.70;2.10;;;;;;;11.47;86.71;98632.55;86019;1283;81930;-62
2022/09/28 02:27:17;;;;;;;3.60;2.20;;;;;;;11.43;86.77;98634.34;86070;1289;82774;-63
2022/09/28 02:29:27;;;;;;;4.10;2.30;;;;;;;11.42;86.78;98633.78;86074;1291;98646;-63
2022/09/28 02:31:37;;;;;;;3.70;2.90;;;;;;;11.44;86.74;98632.36;86077;1298;87879;-64
2022/09/28 02:33:49;;;;;;;2.90;2.60;;;;;;;11.42;86.80;98633.35;86068;1291;95549;-64
2022/09/28 02:36:00;;;;;;;3.40;2.50;;;;;;;11.38;86.78;98629.31;86038;1283;82476;-62
2022/09/28 02:38:12;;;;;;;4.30;2.70;;;;;;;11.36;86.87;98625.83;86061;1298;82496;-63
2022/09/28 02:40:25;;;;;;;4.40;2.60;;;;;;;11.38;86.79;98632.85;86039;1298;97914;-67
2022/09/28 02:42:44;;;;;;;3.70;2.70;;;;;;;11.37;86.91;98633.69;85988;1292;87756;-68
2022/09/28 02:45:17;;;;;;;5.30;3.00;;;;;;;11.37;87.04;98629.24;86064;1298;95013;-67
2022/09/28 02:47:46;;;;;;;3.80;2.80;;;;;;;11.40;86.97;98623.15;85980;1291;79687;-62
2022/09/28 02:50:04;;;;;;;5.10;2.80;;;;;;;11.40;87.08;98624.40;86074;1297;83045;-62
2022/09/28 02:52:34;;;;;;;4.30;2.80;;;;;;;11.40;87.12;98621.75;86017;1297;99995;-64
2022/09/28 02:55:29;;;;;;;4.30;3.10;;;;;;;11.42;87.06;98621.36;86079;1297;88819;-63
2022/09/28 02:57:51;;;;;;;3.90;3.40;;;;;;;11.43;87.07;98623.15;86018;1291;96149;-64
2022/09/28 03:00:10;;;;;;;4.10;3.10;;;;;;;11.40;87.18;98623.73;86064;1297;80777;-62
2022/09/28 03:02:30;;;;;;;4.20;3.30;;;;;;;11.38;87.24;98620.45;86058;1292;80697;-63
2022/09/28 03:04:49;;;;;;;4.30;3.10;;;;;;;11.36;87.25;98620.20;85987;1297;99173;-63
2022/09/28 03:07:06;;;;;;;4.00;3.30;;;;;;;11.40;87.22;98623.31;86044;1292;89119;-61
2022/09/28 03:09:22;;;;;;;4.50;3.30;;;;;;;11.40;87.31;98626.77;86067;1292;95162;-59
2022/09/28 03:11:37;;;;;;;4.20;3.50;;;;;;;11.38;87.39;98624.13;86109;1291;80141;-63
2022/09/28 03:13:46;;;;;;;5.10;3.80;;;;;;;11.39;87.50;98624.59;86078;1282;81579;-63
2022/09/28 03:16:09;;;;;;;5.30;3.80;;;;;;;11.37;87.33;98622.77;86086;1283;98000;-61
2022/09/28 03:18:18;;;;;;;6.30;4.70;;;;;;;11.40;87.48;98622.87;86074;1297;88193;-61
2022/09/28 03:20:28;;;;;;;6.40;4.00;;;;;;;11.41;87.48;98623.60;86028;1298;93334;-58
2022/09/28 03:22:38;;;;;;;5.90;4.40;;;;;;;11.41;87.54;98622.52;86047;1291;80769;-62
2022/09/28 03:24:48;;;;;;;6.10;4.80;;;;;;;11.42;87.59;98621.41;86095;1291;81195;-63
2022/09/28 03:26:57;;;;;;;6.30;4.40;;;;;;;11.41;87.68;98622.36;86108;1290;98451;-67
2022/09/28 03:29:07;;;;;;;5.10;4.60;;;;;;;11.42;87.61;98619.95;86033;1293;88097;-68
2022/09/28 03:31:16;;;;;;;5.30;4.40;;;;;;;11.35;87.71;98621.26;86080;1289;95152;-67
2022/09/28 03:33:26;;;;;;;5.90;4.30;;;;;;;11.36;87.71;98621.45;86037;1297;82194;-68
2022/09/28 03:35:35;;;;;;;5.80;4.70;;;;;;;11.35;87.75;98622.92;86072;1292;83197;-67
2022/09/28 03:37:44;;;;;;;5.70;4.30;;;;;;;11.37;87.82;98622.65;86079;1291;98289;-67
2022/09/28 03:39:54;;;;;;;5.90;4.40;;;;;;;11.40;87.79;98622.00;86086;1291;88271;-66
2022/09/28 03:42:09;;;;;;;6.60;5.30;;;;;;;11.44;87.86;98628.90;86049;1291;95116;-65
2022/09/28 03:44:18;;;;;;;6.90;4.80;;;;;;;11.45;87.83;98624.77;86042;1297;82277;-64
2022/09/28 03:46:29;;;;;;;8.60;5.30;;;;;;;11.46;87.85;98627.61;86087;1290;82401;-67
2022/09/28 03:48:39;;;;;;;6.90;5.90;;;;;;;11.47;87.86;98624.98;86045;1285;97621;-68
2022/09/28 03:50:48;;;;;;;7.20;5.90;;;;;;;11.47;87.90;98624.11;86088;1290;88813;-63
2022/09/28 03:53:01;;;;;;;6.70;6.00;;;;;;;11.48;87.87;98620.84;86084;1291;93593;-64
2022/09/28 03:55:11;;;;;;;7.40;6.30;;;;;;;11.47;87.89;98621.08;86059;1291;80419;-67
2022/09/28 03:57:20;;;;;;;8.10;6.10;;;;;;;11.48;88.00;98620.79;86082;1284;83620;-67
2022/09/28 03:59:29;;;;;;;7.00;6.30;;;;;;;11.51;87.90;98622.69;86057;1292;97559;-67
2022/09/28 04:01:40;;;;;;;8.70;7.30;;;;;;;11.51;87.92;98624.95;86073;1292;88657;-63
2022/09/28 04:03:53;;;;;;;8.20;7.40;;;;;;;11.54;87.87;98627.13;86055;1291;95404;-61
2022/09/28 04:06:05;;;;;;;7.70;6.90;;;;;;;11.52;87.97;98623.30;86052;1297;80312;-60
2022/09/28 04:08:15;;;;;;;8.00;7.20;;;;;;;11.52;88.03;98628.38;86007;1289;82566;-61
2022/09/28 04:10:24;;;;;;;8.90;7.20;;;;;;;11.51;88.07;98629.55;86046;1284;98211;-60
2022/09/28 04:12:33;;;;;;;9.00;7.90;;;;;;;11.48;88.09;98631.87;86106;1291;87834;-60
2022/09/28 04:14:44;;;;;;;9.20;8.30;;;;;;;11.48;88.06;98631.82;86056;1283;96021;-61
2022/09/28 04:16:55;;;;;;;12.30;8.90;;;;;;;11.50;88.07;98631.37;86076;1290;82394;-60
2022/09/28 04:19:05;;;;;;;10.50;9.50;;;;;;;11.51;87.97;98633.67;86054;1291;83181;-61
2022/09/28 04:21:16;;;;;;;10.40;9.40;;;;;;;11.51;87.89;98632.20;86061;1282;98698;-63
2022/09/28 04:23:27;;;;;;;10.40;9.30;;;;;;;11.43;87.81;98635.65;86089;1291;88531;-62
2022/09/28 04:25:36;;;;;;;10.60;9.50;;;;;;;11.41;87.85;98633.23;86060;1280;94535;-63
2022/09/28 04:30:15;;;;;;;11.50;10.30;;;;;;;11.42;87.87;98639.30;86068;1286;84313;-63
2022/09/28 04:32:25;;;;;;;10.90;9.90;;;;;;;11.43;87.90;98637.49;86096;1298;97532;-63
2022/09/28 04:34:34;;;;;;;12.70;10.50;;;;;;;11.42;87.98;98637.89;86086;1297;87051;-58
2022/09/28 04:36:44;;;;;;;11.70;10.60;;;;;;;11.42;87.99;98628.55;86081;1285;93981;-64
2022/09/28 04:38:52;;;;;;;11.10;9.80;;;;;;;11.39;88.05;98632.16;86051;1275;82672;-64
2022/09/28 04:41:02;;;;;;;12.00;10.80;;;;;;;11.37;87.93;98629.36;86070;1291;82104;-64
2022/09/28 04:43:12;;;;;;;12.00;10.50;;;;;;;11.33;87.88;98626.26;86070;1298;99044;-63
2022/09/28 04:45:21;;;;;;;11.40;10.30;;;;;;;11.31;87.82;98627.33;86085;1299;88579;-61
2022/09/28 04:47:31;;;;;;;11.70;10.50;;;;;;;11.33;87.79;98626.88;86052;1298;95615;-63
2022/09/28 04:49:40;;;;;;;11.60;10.40;;;;;;;11.34;87.61;98628.44;86055;1291;81982;-62
2022/09/28 04:51:48;;;;;;;11.40;10.30;;;;;;;11.29;87.78;98631.58;86079;1291;82729;-63
2022/09/28 04:53:57;;;;;;;11.90;10.70;;;;;;;11.24;87.84;98633.77;86066;1289;97746;-64
2022/09/28 05:00:35;;;;;;;11.30;10.20;;;;;;;11.21;87.73;98636.16;87310;1269;94647;-60
2022/09/28 05:02:44;;;;;;;12.70;10.60;;;;;;;11.16;87.82;98634.34;87667;1281;80017;-60
2022/09/28 05:04:55;;;;;;;11.40;10.30;;;;;;;11.13;87.73;98633.23;87684;1282;81667;-63
2022/09/28 05:07:05;;;;;;;11.50;10.30;;;;;;;11.16;87.75;98634.48;87631;1282;95849;-60
2022/09/28 05:09:15;;;;;;;11.60;10.40;;;;;;;11.18;87.53;98641.00;87633;1281;87615;-60
2022/09/28 05:11:26;;;;;;;11.70;10.30;;;;;;;11.14;87.68;98642.85;87613;1288;94746;-60
2022/09/28 05:13:43;;;;;;;14.00;10.50;;;;;;;11.16;87.72;98641.34;87640;1289;81178;-60
2022/09/28 05:15:58;;;;;;;16.90;15.30;;;;;;;11.14;87.74;98640.03;87657;1281;82512;-62
2022/09/28 05:18:08;;;;;;;10.80;9.70;;;;;;;11.18;87.89;98642.88;87653;1282;98154;-63
2022/09/28 05:20:16;;;;;;;12.10;10.80;;;;;;;11.16;87.80;98645.06;87650;1289;88918;-62
2022/09/28 05:22:28;;;;;;;11.90;10.80;;;;;;;11.19;87.90;98647.02;87614;1289;94487;-63
2022/09/28 05:24:36;;;;;;;13.00;9.70;;;;;;;11.21;87.68;98648.96;87569;1282;80750;-63
2022/09/28 05:26:46;;;;;;;10.50;9.50;;;;;;;11.25;87.58;98644.83;87654;1281;82661;-62
2022/09/28 05:28:57;;;;;;;9.60;8.70;;;;;;;11.25;87.66;98642.83;87657;1288;99466;-62
2022/09/28 05:31:07;;;;;;;10.70;9.60;;;;;;;11.27;87.41;98639.30;87632;1282;88823;-60
2022/09/28 05:33:16;;;;;;;10.40;9.30;;;;;;;11.26;87.36;98642.77;87552;1292;93521;-60
2022/09/28 05:35:30;;;;;;;10.50;9.50;;;;;;;11.24;87.43;98646.54;87523;1284;82265;-62
2022/09/28 05:37:41;;;;;;;11.90;9.80;;;;;;;11.25;87.42;98656.30;87591;1291;82442;-62
2022/09/28 05:39:52;;;;;;;10.50;9.20;;;;;;;11.25;87.41;98657.38;87607;1291;98748;-62
2022/09/28 05:42:01;;;;;;;10.80;9.70;;;;;;;11.25;87.36;98652.64;87562;1291;87979;-60
2022/09/28 05:44:10;;;;;;;10.70;9.60;;;;;;;11.27;87.19;98654.40;87563;1291;95500;-60
2022/09/28 05:46:20;;;;;;;10.10;9.10;;;;;;;11.23;87.27;98651.10;87591;1287;80675;-62
2022/09/28 05:48:29;;;;;;;10.40;9.50;;;;;;;11.19;87.39;98651.34;87649;1288;82715;-63
2022/09/28 05:50:38;;;;;;;10.50;9.40;;;;;;;11.19;87.30;98652.54;87680;1282;99069;-61
2022/09/28 05:52:49;;;;;;;10.50;9.40;;;;;;;11.21;87.31;98655.54;87658;1281;87325;-60
2022/09/28 05:54:58;;;;;;;13.00;10.40;;;;;;;11.20;87.39;98657.11;87635;1283;93677;-61
2022/09/28 05:57:08;;;;;;;10.70;9.60;;;;;;;11.25;87.34;98661.16;87661;1281;82763;-60
2022/09/28 05:59:18;;;;;;;11.40;10.20;;;;;;;11.24;87.32;98666.21;87597;1286;83470;-60
2022/09/28 06:01:27;;;;;;;12.60;11.00;;;;;;;11.24;87.24;98665.73;87595;1287;99049;-62
2022/09/28 06:03:36;;;;;;;11.00;10.00;;;;;;;11.23;87.28;98665.44;87560;1282;89233;-62
2022/09/28 06:05:48;;;;;;;9.90;9.00;;;;;;;11.27;87.27;98666.00;87591;1282;94382;-58
2022/09/28 06:07:59;;;;;;;11.70;9.20;;;;;;;11.31;87.11;98667.06;87639;1287;80546;-58
2022/09/28 06:10:11;;;;;;;9.80;8.90;;;;;;;11.31;87.14;98668.98;87672;1287;81968;-58
2022/09/28 06:12:19;;;;;;;10.60;9.50;;;;;;;11.32;87.11;98667.91;87646;1282;99190;-59
2022/09/28 06:14:29;;;;;;;11.80;10.70;;;;;;;11.38;87.11;98671.66;87627;1288;88801;-58
2022/09/28 06:16:39;;;;;;;13.70;10.80;;;;;;;11.45;87.06;98669.12;87641;1282;94702;-60
2022/09/28 06:18:49;;;;;;;12.10;11.00;;;;;;;11.48;87.05;98671.46;87615;1288;82173;-58
2022/09/28 06:20:58;;;;;;;12.00;10.90;;;;;;;11.51;86.95;98671.29;87662;1275;82997;-62
2022/09/28 06:23:07;;;;;;;12.00;10.80;;;;;;;11.56;86.86;98667.90;87645;1289;99793;-62
2022/09/28 06:25:16;;;;;;;12.30;11.00;;;;;;;11.59;87.03;98668.55;87627;1280;87997;-62
2022/09/28 06:27:26;;;;;;;11.90;10.50;;;;;;;11.67;86.96;98671.38;87541;1287;95528;-62
2022/09/28 06:29:38;;;;;;;10.90;9.80;;;;;;;11.72;86.77;98672.22;87578;1291;81588;-60
2022/09/28 06:31:47;;;;;;;12.20;10.70;;;;;;;11.76;86.72;98672.20;87579;1283;82146;-62
2022/09/28 06:33:56;;;;;;;12.90;10.90;;;;;;;11.78;86.60;98674.02;87550;1282;98355;-63
2022/09/28 06:36:05;;;;;;;14.30;11.40;;;;;;;11.82;86.33;98673.14;87602;1290;87228;-64
2022/09/28 06:38:14;;;;;;;11.80;10.00;;;;;;;11.81;86.54;98677.88;87592;1288;95788;-59
2022/09/28 06:40:23;;;;;;;11.40;10.30;;;;;;;11.88;86.26;98674.39;87613;1291;80153;-62
2022/09/28 06:42:32;;;;;;;12.10;10.70;;;;;;;11.94;86.14;98670.41;87662;1288;83418;-62
2022/09/28 06:44:40;;;;;;;10.70;9.60;;;;;;;12.07;85.85;98672.12;87612;1287;99890;-62
2022/09/28 06:46:49;;;;;;;11.90;10.00;;;;;;;12.23;85.61;98667.73;87556;1291;88637;-58
2022/09/28 06:48:58;;;;;;;10.90;9.70;;;;;;;12.40;85.33;98671.13;87568;1290;95431;-58
2022/09/28 06:51:07;;;;;;;11.00;9.90;;;;;;;12.49;85.17;98677.89;87590;1289;79815;-62
2022/09/28 06:53:16;;;;;;;11.80;10.60;;;;;;;12.57;84.95;98679.02;87592;1284;82635;-63
2022/09/28 06:55:26;;;;;;;10.70;9.70;;;;;;;12.56;85.07;98679.98;87623;1281;99648;-58
2022/09/28 06:57:36;;;;;;;11.30;10.30;;;;;;;12.62;84.99;98675.52;87575;1286;89900;-59
2022/09/28 06:59:45;;;;;;;11.10;9.70;;;;;;;12.67;84.56;98675.25;87606;1291;95480;-59
2022/09/28 07:01:55;;;;;;;10.90;9.60;;;;;;;12.71;84.78;98677.70;87572;1290;80600;-62
2022/09/28 07:04:05;;;;;;;11.40;10.30;;;;;;;12.82;84.69;98677.90;87580;1287;83075;-62
2022/09/28 07:06:15;;;;;;;12.30;10.90;;;;;;;12.94;84.62;98683.55;87597;1287;98946;-62
2022/09/28 07:08:27;;;;;;;12.00;10.40;;;;;;;13.02;84.45;98686.73;87573;1288;87344;-62
2022/09/28 07:10:41;;;;;;;11.90;10.50;;;;;;;13.05;83.68;98690.58;87554;1291;95329;-58
2022/09/28 07:12:49;;;;;;;11.00;10.00;;;;;;;13.08;83.42;98694.21;87589;1291;78461;-58
2022/09/28 07:15:01;;;;;;;12.40;10.60;;;;;;;13.13;83.78;98693.34;87597;1291;82201;-61
2022/09/28 07:17:10;;;;;;;12.20;11.00;;;;;;;13.17;83.45;98695.52;87577;1290;99840;-62
2022/09/28 07:19:19;;;;;;;12.40;11.20;;;;;;;13.13;83.73;98697.05;87561;1290;87128;-62
2022/09/28 07:21:28;;;;;;;11.30;10.20;;;;;;;13.13;84.09;98696.31;87549;1292;95546;-58
2022/09/28 07:23:40;;;;;;;11.10;10.00;;;;;;;13.23;84.12;98700.05;87589;1288;81881;-59
2022/09/28 07:25:52;;;;;;;11.70;10.40;;;;;;;13.32;84.14;98700.58;87561;1290;82635;-62
2022/09/28 07:28:03;;;;;;;10.40;9.40;;;;;;;13.44;83.33;98700.36;87572;1291;97998;-62
2022/09/28 07:30:13;;;;;;;10.10;9.10;;;;;;;13.44;82.78;98698.53;87570;1291;89016;-61
2022/09/28 07:32:22;;;;;;;9.40;8.50;;;;;;;13.37;82.42;98697.22;87572;1287;95467;-62
2022/09/28 07:34:42;;;;;;;10.40;9.30;;;;;;;13.38;82.25;98699.30;87566;1282;79974;-62
2022/09/28 07:36:57;;;;;;;10.20;8.30;;;;;;;13.42;82.30;98697.04;87601;1283;83008;-58
2022/09/28 07:39:06;;;;;;;9.40;8.50;;;;;;;13.66;82.60;98693.80;87584;1284;99380;-58
2022/09/28 07:41:20;;;;;;;9.10;8.30;;;;;;;13.89;82.40;98695.13;87568;1278;87626;-62
2022/09/28 07:43:30;;;;;;;10.50;9.50;;;;;;;13.94;82.27;98697.73;87564;1291;94918;-62
2022/09/28 07:45:38;;;;;;;9.90;8.90;;;;;;;13.91;81.68;98697.49;87571;1289;80487;-62
2022/09/28 07:47:48;;;;;;;10.60;8.90;;;;;;;13.83;81.50;98697.43;87572;1291;82836;-62
2022/09/28 07:49:57;;;;;;;9.20;8.40;;;;;;;13.80;81.00;98703.15;87607;1290;97775;-60
2022/09/28 07:52:06;;;;;;;8.70;7.90;;;;;;;13.73;80.51;98701.91;87543;1284;88834;-62
2022/09/28 07:54:16;;;;;;;9.50;8.50;;;;;;;13.69;80.50;98711.35;87572;1275;95327;-62
2022/09/28 07:56:25;;;;;;;10.40;9.00;;;;;;;13.63;80.62;98714.21;87575;1290;80041;-59
2022/09/28 07:58:35;;;;;;;10.30;9.30;;;;;;;13.64;81.11;98715.79;87587;1291;83406;-59
2022/09/28 08:00:46;;;;;;;9.80;8.80;;;;;;;13.66;80.93;98716.58;87591;1282;99144;-58
2022/09/28 08:02:58;;;;;;;9.00;8.20;;;;;;;13.65;80.64;98722.16;87557;1292;88428;-58
2022/09/28 08:05:09;;;;;;;8.60;7.70;;;;;;;13.74;80.18;98723.85;87581;1284;95567;-61
2022/09/28 08:07:20;;;;;;;9.10;8.20;;;;;;;13.80;79.57;98715.86;87594;1291;79332;-62
2022/09/28 08:09:29;;;;;;;9.60;8.50;;;;;;;13.75;79.19;98723.29;87599;1288;82732;-62
2022/09/28 08:11:38;;;;;;;9.00;8.10;;;;;;;13.82;79.90;98728.96;87588;1284;99714;-58
2022/09/28 08:13:47;;;;;;;8.90;7.80;;;;;;;14.00;80.14;98727.57;87431;1285;90749;-58
2022/09/28 08:16:00;;;;;;;10.10;7.00;;;;;;;14.12;80.08;98730.54;87580;1291;95768;-61
2022/09/28 08:18:09;;;;;;;7.90;7.10;;;;;;;14.11;79.82;98729.23;87569;1282;80313;-61
2022/09/28 08:22:45;;;;;;;7.40;6.70;;;;;;;13.94;79.79;98731.40;87584;1290;99925;-62
2022/09/28 08:24:57;;;;;;;7.30;6.60;;;;;;;13.92;79.86;98731.88;87531;1287;89549;-61
2022/09/28 08:27:06;;;;;;;7.20;6.50;;;;;;;13.95;79.67;98732.67;87567;1291;95080;-59
2022/09/28 08:29:15;;;;;;;8.20;7.30;;;;;;;13.92;79.48;98735.88;87560;1291;80789;-59
2022/09/28 08:31:24;;;;;;;7.40;6.70;;;;;;;13.91;79.46;98732.61;87570;1291;81219;-59
2022/09/28 08:33:33;;;;;;;7.40;6.60;;;;;;;13.91;79.25;98736.25;87580;1284;99428;-59
2022/09/28 08:35:42;;;;;;;8.30;6.40;;;;;;;13.86;78.57;98736.56;87595;1291;88302;-59
2022/09/28 08:37:54;;;;;;;7.80;6.20;;;;;;;13.79;78.18;98736.36;87547;1291;95087;-59
2022/09/28 08:40:05;;;;;;;7.30;6.50;;;;;;;13.74;78.30;98738.51;87587;1290;81246;-59
2022/09/28 08:42:33;;;;;;;7.90;6.90;;;;;;;13.84;78.65;98738.23;87602;1284;82923;-59
2022/09/28 08:44:48;;;;;;;7.00;6.40;;;;;;;14.33;79.15;98730.92;87595;1284;98358;-59
2022/09/28 08:47:04;;;;;;;6.50;5.90;;;;;;;14.94;79.35;98729.20;87559;1290;89174;-59
2022/09/28 08:49:21;;;;;;;6.20;5.60;;;;;;;15.51;77.98;98726.84;87550;1291;95793;-59
2022/09/28 08:51:36;;;;;;;5.90;5.10;;;;;;;16.01;77.62;98733.58;87600;1290;78890;-62
2022/09/28 08:53:52;;;;;;;5.60;5.10;;;;;;;16.35;77.51;98731.27;87571;1291;81492;-62
2022/09/28 08:56:06;;;;;;;5.70;5.20;;;;;;;16.42;76.92;98728.73;87583;1284;99773;-62
2022/09/28 08:58:20;;;;;;;6.50;5.50;;;;;;;16.35;76.72;98728.38;87552;1284;88161;-62
2022/09/28 09:00:38;;;;;;;7.20;4.80;;;;;;;16.51;75.85;98730.90;87578;1291;95341;-60
2022/09/28 09:02:47;;;;;;;7.70;5.30;;;;;;;16.85;74.73;98727.23;87580;1290;79459;-59
2022/09/28 09:04:57;;;;;;;6.10;4.40;;;;;;;16.97;73.92;98726.32;87582;1291;83256;-60
2022/09/28 09:07:53;;;;;;;5.20;4.40;;;;;;;16.76;72.79;98725.95;87613;1290;99290;-62
2022/09/28 09:10:13;;;;;;;5.30;4.00;;;;;;;16.46;73.15;98729.45;87179;1284;87930;-62
2022/09/28 09:12:34;;;;;;;5.90;4.20;;;;;;;16.48;73.32;98731.63;87548;1292;94106;-62
2022/09/28 09:16:00;;;;;;;5.30;4.30;;;;;;;16.39;73.00;98734.06;87570;1283;80531;-62
2022/09/28 09:18:25;;;;;;;4.60;4.20;;;;;;;16.24;73.92;98727.41;87571;1291;83448;-62
2022/09/28 09:20:45;;;;;;;5.50;3.90;;;;;;;16.24;74.04;98730.73;87598;1290;99139;-58
2022/09/28 09:23:01;;;;;;;4.60;3.80;;;;;;;16.65;74.15;98727.24;87548;1287;88707;-58
2022/09/28 09:25:28;;;;;;;4.50;3.70;;;;;;;17.48;73.82;98724.90;87523;1289;95563;-62
2022/09/28 09:27:59;;;;;;;4.80;3.50;;;;;;;18.25;72.42;98723.25;87575;1287;80040;-62
2022/09/28 09:30:12;;;;;;;4.90;3.80;;;;;;;18.65;72.48;98719.64;87596;1284;82320;-59
2022/09/28 09:32:41;;;;;;;4.80;3.40;;;;;;;19.05;72.21;98720.91;87586;1290;99377;-59
2022/09/28 09:35:41;;;;;;;4.00;3.30;;;;;;;18.71;70.03;98726.16;87553;1291;86781;-59
2022/09/28 09:38:16;;;;;;;4.50;3.80;;;;;;;18.21;69.47;98729.23;87566;1291;93486;-58
2022/09/28 09:40:48;;;;;;;4.70;3.60;;;;;;;17.78;69.55;98730.78;87589;1274;79379;-58
2022/09/28 09:43:26;;;;;;;5.80;3.90;;;;;;;17.40;69.93;98733.16;87585;1287;83149;-58
2022/09/28 09:45:55;;;;;;;5.00;3.40;;;;;;;17.25;69.84;98732.89;87597;1291;99302;-62
2022/09/28 09:48:11;;;;;;;5.00;2.70;;;;;;;17.05;69.77;98731.78;87565;1284;89279;-62
2022/09/28 09:50:32;;;;;;;3.90;2.90;;;;;;;16.85;69.75;98735.69;87573;1288;95998;-62
2022/09/28 09:52:53;;;;;;;4.20;2.60;;;;;;;16.71;70.12;98738.73;87590;1290;80578;-62
2022/09/28 09:55:14;;;;;;;3.00;2.70;;;;;;;16.85;70.76;98741.25;87622;1285;82722;-64
2022/09/28 09:57:26;;;;;;;5.70;2.70;;;;;;;17.13;70.82;98738.77;87550;1283;98772;-59
2022/09/28 09:59:43;;;;;;;4.40;2.80;;;;;;;17.38;70.68;98740.19;87551;1290;87738;-57
2022/09/28 10:01:56;;;;;;;3.90;3.00;;;;;;;17.50;69.48;98743.90;87571;1283;94007;-59
2022/09/28 10:04:14;;;;;;;5.70;3.40;;;;;;;17.50;68.78;98739.48;87559;1284;79690;-59
2022/09/28 10:06:32;;;;;;;4.70;3.00;;;;;;;17.48;68.34;98742.80;87588;1287;82355;-62
2022/09/28 10:08:48;;;;;;;5.00;2.90;;;;;;;17.53;67.39;98744.14;87605;1290;99261;-62
2022/09/28 10:11:08;;;;;;;4.10;2.90;;;;;;;17.50;67.14;98745.38;87572;1291;87954;-62
2022/09/28 10:13:17;;;;;;;5.00;2.50;;;;;;;17.55;67.40;98749.38;87565;1291;93957;-62
2022/09/28 10:15:30;;;;;;;4.30;2.50;;;;;;;17.36;66.80;98748.13;87467;1292;81213;-62
2022/09/28 10:17:39;;;;;;;3.40;2.80;;;;;;;17.03;67.00;98756.45;87564;1291;81853;-62
2022/09/28 10:19:48;;;;;;;3.50;2.70;;;;;;;16.73;67.76;98758.30;87594;1284;99341;-62
2022/09/28 10:22:01;;;;;;;4.70;2.70;;;;;;;16.47;68.37;98762.89;87570;1291;86572;-62
2022/09/28 10:24:18;;;;;;;4.00;3.20;;;;;;;16.37;68.85;98759.29;87561;1288;96176;-63
2022/09/28 10:26:34;;;;;;;4.30;2.90;;;;;;;16.35;69.02;98764.14;87575;1291;79525;-59
2022/09/28 10:28:53;;;;;;;4.30;3.20;;;;;;;16.29;69.10;98761.61;87609;1274;82244;-59
2022/09/28 10:31:22;;;;;;;4.20;2.80;;;;;;;16.28;68.69;98761.05;87598;1287;99285;-62
2022/09/28 10:33:36;;;;;;;3.40;2.80;;;;;;;16.15;68.44;98765.79;87555;1291;88328;-62